sensor_id;sensor_type;location;lat;lon;timestamp;P1;durP1;ratioP1;P2;durP2;ratioP2
67164;SDS011;54093;50.014;19.984;2023-01-15T00:00:57;3.15;;;2.08;;
67164;SDS011;54093;50.014;19.984;2023-01-15T00:10:39;4.68;;;1.40;;
67164;SDS011;54093;50.014;19.984;2023-01-15T00:20:00;1.30;;;1.30;;
67164;SDS011;54093;50.014;19.984;2023-01-15T00:29:21;1.55;;;1.38;;
67164;SDS011;54093;50.014;19.984;2023-01-15T00:38:43;1.30;;;1.20;;
67164;SDS011;54093;50.014;19.984;2023-01-15T00:48:04;1.05;;;1.05;;
67164;SDS011;54093;50.014;19.984;2023-01-15T00:57:26;1.38;;;1.27;;
67164;SDS011;54093;50.014;19.984;2023-01-15T01:06:47;0.68;;;0.68;;
67164;SDS011;54093;50.014;19.984;2023-01-15T01:16:21;1.75;;;0.95;;
67164;SDS011;54093;50.014;19.984;2023-01-15T01:25:42;0.93;;;0.93;;
67164;SDS011;54093;50.014;19.984;2023-01-15T01:35:03;1.50;;;1.40;;
67164;SDS011;54093;50.014;19.984;2023-01-15T01:53:51;1.50;;;1.00;;
67164;SDS011;54093;50.014;19.984;2023-01-15T02:03:13;1.88;;;1.42;;
67164;SDS011;54093;50.014;19.984;2023-01-15T02:12:34;0.90;;;0.90;;
67164;SDS011;54093;50.014;19.984;2023-01-15T02:22:03;1.00;;;1.00;;
67164;SDS011;54093;50.014;19.984;2023-01-15T02:31:35;1.13;;;1.02;;
67164;SDS011;54093;50.014;19.984;2023-01-15T02:40:58;0.70;;;0.70;;
67164;SDS011;54093;50.014;19.984;2023-01-15T02:50:24;1.77;;;1.20;;
67164;SDS011;54093;50.014;19.984;2023-01-15T02:59:48;1.25;;;1.20;;
67164;SDS011;54093;50.014;19.984;2023-01-15T03:09:11;1.40;;;1.40;;
67164;SDS011;54093;50.014;19.984;2023-01-15T03:18:36;1.50;;;1.40;;
67164;SDS011;54093;50.014;19.984;2023-01-15T03:28:04;1.15;;;1.15;;
67164;SDS011;54093;50.014;19.984;2023-01-15T03:37:26;1.35;;;1.35;;
67164;SDS011;54093;50.014;19.984;2023-01-15T04:06:00;0.95;;;0.95;;
67164;SDS011;54093;50.014;19.984;2023-01-15T04:15:23;1.20;;;1.20;;
67164;SDS011;54093;50.014;19.984;2023-01-15T04:24:44;1.30;;;1.30;;
67164;SDS011;54093;50.014;19.984;2023-01-15T04:34:05;1.88;;;1.13;;
67164;SDS011;54093;50.014;19.984;2023-01-15T04:43:25;1.40;;;1.30;;
67164;SDS011;54093;50.014;19.984;2023-01-15T04:53:05;1.50;;;1.40;;
67164;SDS011;54093;50.014;19.984;2023-01-15T05:02:26;1.02;;;1.02;;
67164;SDS011;54093;50.014;19.984;2023-01-15T05:11:47;1.33;;;1.00;;
67164;SDS011;54093;50.014;19.984;2023-01-15T05:21:28;1.20;;;1.20;;
67164;SDS011;54093;50.014;19.984;2023-01-15T05:30:51;1.08;;;1.08;;
67164;SDS011;54093;50.014;19.984;2023-01-15T05:40:12;1.20;;;1.10;;
67164;SDS011;54093;50.014;19.984;2023-01-15T05:49:33;1.20;;;1.05;;
67164;SDS011;54093;50.014;19.984;2023-01-15T05:58:54;1.20;;;1.10;;
67164;SDS011;54093;50.014;19.984;2023-01-15T06:08:15;1.35;;;1.25;;
67164;SDS011;54093;50.014;19.984;2023-01-15T06:17:36;1.85;;;1.35;;
67164;SDS011;54093;50.014;19.984;2023-01-15T06:26:57;1.50;;;1.33;;
67164;SDS011;54093;50.014;19.984;2023-01-15T06:36:19;1.55;;;1.30;;
67164;SDS011;54093;50.014;19.984;2023-01-15T06:45:41;1.60;;;1.45;;
67164;SDS011;54093;50.014;19.984;2023-01-15T06:55:21;1.13;;;0.70;;
67164;SDS011;54093;50.014;19.984;2023-01-15T07:04:43;1.05;;;1.02;;
67164;SDS011;54093;50.014;19.984;2023-01-15T07:14:05;0.85;;;0.85;;
67164;SDS011;54093;50.014;19.984;2023-01-15T07:23:26;1.00;;;1.00;;
67164;SDS011;54093;50.014;19.984;2023-01-15T07:32:48;1.02;;;0.93;;
67164;SDS011;54093;50.014;19.984;2023-01-15T07:42:09;1.42;;;1.33;;
67164;SDS011;54093;50.014;19.984;2023-01-15T07:51:49;1.35;;;1.30;;
67164;SDS011;54093;50.014;19.984;2023-01-15T08:01:10;1.70;;;1.60;;
67164;SDS011;54093;50.014;19.984;2023-01-15T08:10:31;1.10;;;1.10;;
67164;SDS011;54093;50.014;19.984;2023-01-15T08:29:35;1.17;;;1.17;;
67164;SDS011;54093;50.014;19.984;2023-01-15T08:38:56;1.00;;;1.00;;
67164;SDS011;54093;50.014;19.984;2023-01-15T08:48:17;1.15;;;1.15;;
67164;SDS011;54093;50.014;19.984;2023-01-15T08:57:38;0.80;;;0.80;;
67164;SDS011;54093;50.014;19.984;2023-01-15T09:06:59;0.90;;;0.90;;
67164;SDS011;54093;50.014;19.984;2023-01-15T09:16:21;1.10;;;1.10;;
67164;SDS011;54093;50.014;19.984;2023-01-15T09:25:55;1.00;;;1.00;;
67164;SDS011;54093;50.014;19.984;2023-01-15T09:35:16;1.38;;;1.27;;
67164;SDS011;54093;50.014;19.984;2023-01-15T10:13:28;1.17;;;1.10;;
67164;SDS011;54093;50.014;19.984;2023-01-15T10:32:47;1.45;;;1.35;;
67164;SDS011;54093;50.014;19.984;2023-01-15T11:01:57;0.98;;;0.98;;
67164;SDS011;54093;50.014;19.984;2023-01-15T11:11:21;1.15;;;1.15;;
67164;SDS011;54093;50.014;19.984;2023-01-15T11:20:43;1.45;;;1.33;;
67164;SDS011;54093;50.014;19.984;2023-01-15T11:30:06;3.40;;;1.58;;
67164;SDS011;54093;50.014;19.984;2023-01-15T11:39:55;1.50;;;1.40;;
67164;SDS011;54093;50.014;19.984;2023-01-15T11:49:25;2.25;;;1.50;;
67164;SDS011;54093;50.014;19.984;2023-01-15T11:59:08;2.63;;;1.85;;
67164;SDS011;54093;50.014;19.984;2023-01-15T12:37:16;2.20;;;1.40;;
67164;SDS011;54093;50.014;19.984;2023-01-15T12:46:44;2.17;;;2.08;;
67164;SDS011;54093;50.014;19.984;2023-01-15T12:56:11;1.70;;;1.60;;
67164;SDS011;54093;50.014;19.984;2023-01-15T13:05:45;1.55;;;1.45;;
67164;SDS011;54093;50.014;19.984;2023-01-15T13:15:13;1.58;;;1.48;;
67164;SDS011;54093;50.014;19.984;2023-01-15T13:43:43;6.20;;;2.50;;
67164;SDS011;54093;50.014;19.984;2023-01-15T13:53:16;2.38;;;1.73;;
67164;SDS011;54093;50.014;19.984;2023-01-15T14:02:52;2.10;;;1.75;;
67164;SDS011;54093;50.014;19.984;2023-01-15T14:31:47;2.08;;;1.90;;
67164;SDS011;54093;50.014;19.984;2023-01-15T14:41:29;2.47;;;2.13;;
67164;SDS011;54093;50.014;19.984;2023-01-15T14:50:52;2.65;;;2.42;;
67164;SDS011;54093;50.014;19.984;2023-01-15T15:00:15;2.67;;;2.05;;
67164;SDS011;54093;50.014;19.984;2023-01-15T15:38:22;2.33;;;2.17;;
67164;SDS011;54093;50.014;19.984;2023-01-15T15:47:44;2.25;;;2.15;;
67164;SDS011;54093;50.014;19.984;2023-01-15T15:57:24;2.28;;;2.13;;
67164;SDS011;54093;50.014;19.984;2023-01-15T16:06:48;2.70;;;1.77;;
67164;SDS011;54093;50.014;19.984;2023-01-15T16:16:10;1.77;;;1.67;;
67164;SDS011;54093;50.014;19.984;2023-01-15T16:25:36;1.25;;;1.15;;
67164;SDS011;54093;50.014;19.984;2023-01-15T16:35:06;2.33;;;2.13;;
67164;SDS011;54093;50.014;19.984;2023-01-15T16:44:49;3.30;;;2.65;;
67164;SDS011;54093;50.014;19.984;2023-01-15T17:04:02;2.35;;;2.25;;
67164;SDS011;54093;50.014;19.984;2023-01-15T17:13:38;3.30;;;2.25;;
67164;SDS011;54093;50.014;19.984;2023-01-15T17:23:00;3.10;;;2.90;;
67164;SDS011;54093;50.014;19.984;2023-01-15T17:32:30;3.42;;;3.13;;
67164;SDS011;54093;50.014;19.984;2023-01-15T17:41:55;3.08;;;2.88;;
67164;SDS011;54093;50.014;19.984;2023-01-15T17:51:16;2.30;;;2.10;;
67164;SDS011;54093;50.014;19.984;2023-01-15T18:00:38;2.20;;;2.00;;
67164;SDS011;54093;50.014;19.984;2023-01-15T18:10:17;3.70;;;3.13;;
67164;SDS011;54093;50.014;19.984;2023-01-15T18:19:40;5.55;;;2.78;;
67164;SDS011;54093;50.014;19.984;2023-01-15T18:29:01;2.03;;;1.83;;
67164;SDS011;54093;50.014;19.984;2023-01-15T18:38:23;2.00;;;1.90;;
67164;SDS011;54093;50.014;19.984;2023-01-15T18:47:45;1.70;;;1.60;;
67164;SDS011;54093;50.014;19.984;2023-01-15T18:57:06;2.42;;;2.22;;
67164;SDS011;54093;50.014;19.984;2023-01-15T19:06:27;2.17;;;2.08;;
67164;SDS011;54093;50.014;19.984;2023-01-15T19:15:48;1.80;;;1.70;;
67164;SDS011;54093;50.014;19.984;2023-01-15T19:25:41;2.60;;;2.40;;
67164;SDS011;54093;50.014;19.984;2023-01-15T19:35:04;3.77;;;2.10;;
67164;SDS011;54093;50.014;19.984;2023-01-15T19:44:25;1.98;;;1.77;;
67164;SDS011;54093;50.014;19.984;2023-01-15T19:54:05;3.90;;;1.90;;
67164;SDS011;54093;50.014;19.984;2023-01-15T20:03:26;7.25;;;2.25;;
67164;SDS011;54093;50.014;19.984;2023-01-15T20:12:48;4.10;;;1.77;;
67164;SDS011;54093;50.014;19.984;2023-01-15T20:22:28;2.38;;;2.10;;
67164;SDS011;54093;50.014;19.984;2023-01-15T20:31:50;2.83;;;1.63;;
67164;SDS011;54093;50.014;19.984;2023-01-15T20:41:11;3.50;;;1.67;;
67164;SDS011;54093;50.014;19.984;2023-01-15T20:50:51;1.95;;;1.85;;
67164;SDS011;54093;50.014;19.984;2023-01-15T21:00:22;2.40;;;1.80;;
67164;SDS011;54093;50.014;19.984;2023-01-15T21:09:43;3.53;;;2.45;;
67164;SDS011;54093;50.014;19.984;2023-01-15T21:19:04;4.30;;;1.90;;
67164;SDS011;54093;50.014;19.984;2023-01-15T21:28:26;4.18;;;1.75;;
67164;SDS011;54093;50.014;19.984;2023-01-15T21:37:47;1.58;;;1.30;;
67164;SDS011;54093;50.014;19.984;2023-01-15T21:47:13;1.17;;;1.17;;
67164;SDS011;54093;50.014;19.984;2023-01-15T21:56:36;1.33;;;1.23;;
67164;SDS011;54093;50.014;19.984;2023-01-15T22:06:01;0.82;;;0.82;;
67164;SDS011;54093;50.014;19.984;2023-01-15T22:15:24;9.17;;;2.07;;
67164;SDS011;54093;50.014;19.984;2023-01-15T22:24:45;1.40;;;1.30;;
67164;SDS011;54093;50.014;19.984;2023-01-15T22:34:07;1.77;;;1.67;;
67164;SDS011;54093;50.014;19.984;2023-01-15T22:43:29;1.65;;;1.55;;
67164;SDS011;54093;50.014;19.984;2023-01-15T22:52:50;1.70;;;1.60;;
67164;SDS011;54093;50.014;19.984;2023-01-15T23:02:11;1.90;;;1.80;;
67164;SDS011;54093;50.014;19.984;2023-01-15T23:11:32;1.73;;;1.63;;
67164;SDS011;54093;50.014;19.984;2023-01-15T23:20:54;3.45;;;1.65;;
67164;SDS011;54093;50.014;19.984;2023-01-15T23:30:16;2.20;;;1.95;;
67164;SDS011;54093;50.014;19.984;2023-01-15T23:39:37;2.50;;;1.13;;
67164;SDS011;54093;50.014;19.984;2023-01-15T23:49:03;1.30;;;1.20;;
67164;SDS011;54093;50.014;19.984;2023-01-15T23:58:28;1.80;;;1.58;;
